Time;durP1;ratioP1;P1;durP2;ratioP2;P2;SDS_P1;SDS_P2;PMS_P1;PMS_P2;Temp;Humidity;BMP_temperature;BMP_pressure;BME280_temperature;BME280_humidity;BME280_pressure;Samples;Min_cycle;Max_cycle;Signal;HPM_P1;HPM_P2
2023/02/22 00:01:49;;;;;;;36.20;17.20;;;;;;;8.44;99.75;100913.33;108701;1257;59317;-78
2023/02/22 00:04:19;;;;;;;36.80;17.60;;;;;;;8.42;99.81;100914.20;108619;1257;74696;-78
2023/02/22 00:06:47;;;;;;;35.90;17.00;;;;;;;8.42;99.61;100914.93;108730;1257;70933;-78
2023/02/22 00:09:19;;;;;;;35.00;16.50;;;;;;;8.41;99.81;100912.31;108697;1257;71753;-78
2023/02/22 00:11:47;;;;;;;35.20;17.50;;;;;;;8.41;99.77;100916.55;108716;1257;60892;-78
2023/02/22 00:14:19;;;;;;;37.10;17.10;;;;;;;8.42;99.58;100912.65;108697;1257;59471;-78
2023/02/22 00:16:46;;;;;;;35.40;17.00;;;;;;;8.42;99.63;100911.59;108762;1257;73759;-78
2023/02/22 00:19:13;;;;;;;34.20;16.60;;;;;;;8.41;99.60;100915.33;108699;1257;70325;-78
2023/02/22 00:21:40;;;;;;;35.50;16.70;;;;;;;8.42;99.43;100918.66;108777;1257;71668;-78
2023/02/22 00:24:21;;;;;;;34.60;16.90;;;;;;;8.41;99.66;100919.19;108675;1257;60141;-78
2023/02/22 00:26:56;;;;;;;35.60;17.30;;;;;;;8.43;99.66;100911.70;108640;1257;59147;-77
2023/02/22 00:29:24;;;;;;;37.40;16.70;;;;;;;8.43;99.59;100915.73;108712;1257;74285;-77
2023/02/22 00:31:51;;;;;;;35.70;16.60;;;;;;;8.43;99.77;100915.16;108720;1257;71507;-78
2023/02/22 00:34:18;;;;;;;36.70;18.00;;;;;;;8.44;99.71;100910.31;108664;1257;72740;-78
2023/02/22 00:36:47;;;;;;;35.20;17.30;;;;;;;8.45;99.53;100911.27;108736;1257;59631;-78
2023/02/22 00:39:14;;;;;;;34.00;17.60;;;;;;;8.44;99.45;100906.05;108754;1257;59112;-78
2023/02/22 00:41:42;;;;;;;35.50;17.50;;;;;;;8.44;99.46;100905.14;108709;1259;74376;-78
2023/02/22 00:44:09;;;;;;;36.10;17.00;;;;;;;8.44;99.56;100904.80;108710;1257;69943;-78
2023/02/22 00:46:36;;;;;;;33.30;16.50;;;;;;;8.45;99.28;100903.64;108739;1257;71204;-78
2023/02/22 00:49:04;;;;;;;36.30;16.70;;;;;;;8.47;99.32;100901.19;108591;1257;60949;-78
2023/02/22 00:51:32;;;;;;;34.70;16.90;;;;;;;8.49;99.27;100901.16;108755;1257;59531;-78
2023/02/22 00:53:59;;;;;;;31.70;15.70;;;;;;;8.51;99.26;100897.07;108746;1257;73999;-78
2023/02/22 00:56:26;;;;;;;33.10;16.40;;;;;;;8.54;98.98;100898.54;108722;1257;69555;-78
2023/02/22 00:58:53;;;;;;;33.80;16.00;;;;;;;8.54;98.78;100897.40;108556;1257;71485;-78
2023/02/22 01:01:22;;;;;;;31.50;16.10;;;;;;;8.52;98.29;100892.55;108769;1257;59729;-78
2023/02/22 01:03:50;;;;;;;33.90;16.50;;;;;;;8.47;97.88;100891.86;108768;1257;60021;-78
2023/02/22 01:06:17;;;;;;;33.10;16.70;;;;;;;8.41;97.54;100889.60;108748;1257;73266;-78
2023/02/22 01:08:45;;;;;;;34.70;16.30;;;;;;;8.37;97.75;100888.10;108594;1258;70044;-78
2023/02/22 01:11:14;;;;;;;33.30;16.50;;;;;;;8.34;97.83;100885.90;108639;1257;71514;-78
2023/02/22 01:13:44;;;;;;;35.00;16.60;;;;;;;8.30;97.89;100885.96;108740;1257;60957;-78
2023/02/22 01:16:11;;;;;;;33.70;16.10;;;;;;;8.26;97.60;100882.88;108755;1257;60330;-78
2023/02/22 01:18:38;;;;;;;34.30;16.30;;;;;;;8.19;97.76;100882.16;108715;1259;73630;-78
2023/02/22 01:21:05;;;;;;;33.40;16.70;;;;;;;8.08;97.44;100877.70;108747;1257;69789;-78
2023/02/22 01:23:32;;;;;;;31.30;16.30;;;;;;;8.01;97.59;100876.59;108722;1257;73093;-78
2023/02/22 01:26:00;;;;;;;36.10;16.90;;;;;;;7.93;97.59;100879.08;108656;1257;60899;-78
2023/02/22 01:28:28;;;;;;;37.00;17.30;;;;;;;7.84;97.74;100877.68;108694;1257;59050;-78
2023/02/22 01:30:55;;;;;;;36.30;16.60;;;;;;;7.72;97.57;100870.72;108713;1262;75508;-78
2023/02/22 01:33:22;;;;;;;39.20;16.70;;;;;;;7.64;97.75;100867.89;108681;1259;71175;-78
2023/02/22 01:35:50;;;;;;;40.90;18.90;;;;;;;7.55;97.86;100864.89;108703;1257;71221;-78
2023/02/22 01:38:17;;;;;;;34.10;17.10;;;;;;;7.45;97.90;100863.45;108694;1257;61973;-78
2023/02/22 01:40:48;;;;;;;35.30;15.70;;;;;;;7.35;98.28;100858.16;108757;1257;59120;-78
2023/02/22 01:43:26;;;;;;;37.30;16.70;;;;;;;7.28;98.47;100860.84;108747;1257;73155;-78
2023/02/22 01:46:07;;;;;;;36.40;17.10;;;;;;;7.21;98.80;100861.38;108746;1257;69938;-78
2023/02/22 01:48:37;;;;;;;37.90;16.70;;;;;;;7.13;98.64;100859.12;108698;1257;72886;-78
2023/02/22 01:51:09;;;;;;;37.80;16.90;;;;;;;7.04;98.64;100855.89;108749;1257;61388;-78
2023/02/22 01:53:49;;;;;;;35.30;16.40;;;;;;;6.94;98.38;100859.51;108746;1257;60177;-78
2023/02/22 01:56:17;;;;;;;36.20;16.30;;;;;;;6.83;98.73;100857.06;108705;1257;73728;-78
2023/02/22 01:58:49;;;;;;;42.20;17.00;;;;;;;6.75;98.79;100856.97;108721;1257;71970;-78
2023/02/22 02:01:18;;;;;;;39.70;16.90;;;;;;;6.68;99.08;100857.30;108779;1257;70249;-78
2023/02/22 02:03:48;;;;;;;39.10;16.40;;;;;;;6.59;99.06;100854.21;108691;1257;60094;-78
2023/02/22 02:06:15;;;;;;;34.00;15.60;;;;;;;6.49;98.76;100854.70;108728;1257;60476;-78
2023/02/22 02:09:13;;;;;;;37.10;16.10;;;;;;;6.38;98.76;100851.18;108714;1257;74821;-78
2023/02/22 02:11:40;;;;;;;35.10;15.60;;;;;;;6.26;99.17;100852.73;108755;1257;69723;-78
2023/02/22 02:14:09;;;;;;;37.00;15.90;;;;;;;6.20;99.46;100847.93;108720;1257;70492;-78
2023/02/22 02:16:42;;;;;;;33.90;15.70;;;;;;;6.13;99.78;100844.11;108657;1257;61367;-78
2023/02/22 02:19:38;;;;;;;33.70;15.30;;;;;;;6.07;99.97;100842.19;108792;1257;59106;-78
2023/02/22 02:22:18;;;;;;;37.30;16.30;;;;;;;6.01;100.00;100835.92;108752;1257;74831;-78
2023/02/22 02:25:03;;;;;;;34.90;15.40;;;;;;;5.96;100.00;100837.27;108724;1257;70344;-78
2023/02/22 02:28:00;;;;;;;35.20;15.20;;;;;;;5.91;100.00;100834.20;108752;1257;71570;-78
2023/02/22 02:30:58;;;;;;;37.30;15.30;;;;;;;5.85;100.00;100833.12;108754;1257;61084;-78
2023/02/22 02:33:43;;;;;;;38.30;16.80;;;;;;;5.81;100.00;100835.46;108749;1258;60451;-78
2023/02/22 02:36:16;;;;;;;40.20;16.50;;;;;;;5.77;100.00;100834.21;108739;1257;72955;-78
2023/02/22 02:38:53;;;;;;;41.30;16.80;;;;;;;5.74;100.00;100836.45;108815;1257;71286;-78
2023/02/22 02:41:32;;;;;;;38.60;16.50;;;;;;;5.71;100.00;100833.72;108779;1257;72730;-78
2023/02/22 02:44:04;;;;;;;39.30;16.90;;;;;;;5.67;100.00;100832.29;108767;1259;62062;-78
2023/02/22 02:46:36;;;;;;;35.50;16.00;;;;;;;5.64;100.00;100829.41;108735;1259;59000;-78
2023/02/22 02:49:14;;;;;;;35.00;14.90;;;;;;;5.61;100.00;100827.30;108691;1258;74766;-78
2023/02/22 02:51:46;;;;;;;49.00;13.40;;;;;;;5.55;100.00;100820.83;108781;1257;69678;-78
2023/02/22 02:54:14;;;;;;;56.40;12.50;;;;;;;5.48;100.00;100814.77;108892;1257;72451;-78
2023/02/22 02:56:44;;;;;;;74.20;12.80;;;;;;;5.43;100.00;100815.92;108796;1258;59409;-79
2023/02/22 02:59:32;;;;;;;50.00;11.40;;;;;;;5.37;100.00;100811.02;108700;1258;60592;-78
2023/02/22 03:02:29;;;;;;;69.60;11.70;;;;;;;5.31;100.00;100814.37;108760;1257;74493;-78
2023/02/22 03:05:06;;;;;;;21.50;9.50;;;;;;;5.26;100.00;100814.45;108793;1257;69906;-78
2023/02/22 03:07:48;;;;;;;23.20;10.40;;;;;;;5.23;100.00;100815.09;108787;1258;72737;-78
2023/02/22 03:10:18;;;;;;;27.90;11.80;;;;;;;5.20;100.00;100814.63;108768;1258;59835;-78
2023/02/22 03:13:03;;;;;;;31.60;13.00;;;;;;;5.16;100.00;100814.46;108704;1259;59356;-78
2023/02/22 03:15:52;;;;;;;32.10;13.30;;;;;;;5.12;100.00;100814.49;108774;1258;73108;-78
2023/02/22 03:18:41;;;;;;;36.00;14.40;;;;;;;5.08;100.00;100811.14;108817;1257;71224;-78
2023/02/22 03:21:26;;;;;;;39.50;14.30;;;;;;;5.06;100.00;100807.68;108828;1257;73174;-78
2023/02/22 03:24:09;;;;;;;35.80;14.30;;;;;;;5.03;100.00;100803.17;108704;1260;59764;-78
2023/02/22 03:27:10;;;;;;;33.90;13.80;;;;;;;5.02;100.00;100801.66;108779;1258;58985;-78
2023/02/22 03:29:42;;;;;;;33.70;12.90;;;;;;;5.01;100.00;100797.27;108809;1257;74760;-78
2023/02/22 03:32:14;;;;;;;82.30;13.50;;;;;;;4.98;100.00;100800.13;108810;1258;71687;-78
2023/02/22 03:34:51;;;;;;;103.10;13.50;;;;;;;4.94;100.00;100798.02;108804;1257;71802;-79
2023/02/22 03:37:22;;;;;;;64.20;10.90;;;;;;;4.89;100.00;100795.14;108786;1258;60175;-78
2023/02/22 03:39:53;;;;;;;85.90;10.10;;;;;;;4.84;100.00;100794.18;108729;1258;59337;-79
2023/02/22 03:42:24;;;;;;;48.60;9.40;;;;;;;4.79;100.00;100791.80;108802;1259;74382;-78
2023/02/22 03:44:55;;;;;;;54.00;9.30;;;;;;;4.75;100.00;100792.19;108804;1259;69269;-79
2023/02/22 03:47:36;;;;;;;35.80;8.30;;;;;;;4.69;100.00;100787.38;108717;1258;71392;-78
2023/02/22 03:50:34;;;;;;;29.80;7.40;;;;;;;4.63;100.00;100788.27;108782;1257;60914;-78
2023/02/22 03:53:02;;;;;;;26.50;8.80;;;;;;;4.55;100.00;100786.34;108707;1257;61452;-78
2023/02/22 03:55:30;;;;;;;18.50;8.00;;;;;;;4.50;100.00;100784.73;108806;1258;74391;-78
2023/02/22 03:57:58;;;;;;;17.20;8.00;;;;;;;4.44;100.00;100785.70;108790;1259;71179;-78
2023/02/22 04:00:29;;;;;;;18.60;8.10;;;;;;;4.39;100.00;100784.72;108808;1258;71925;-78
2023/02/22 04:02:56;;;;;;;20.60;8.70;;;;;;;4.36;100.00;100788.84;108755;1257;60774;-78
2023/02/22 04:05:24;;;;;;;19.80;8.70;;;;;;;4.34;100.00;100785.92;108790;1257;59505;-78
2023/02/22 04:07:53;;;;;;;18.90;8.80;;;;;;;4.33;100.00;100785.69;108825;1257;73456;-78
2023/02/22 04:10:20;;;;;;;19.90;9.30;;;;;;;4.31;100.00;100787.75;108801;1261;72291;-78
2023/02/22 04:12:47;;;;;;;22.20;10.20;;;;;;;4.28;100.00;100780.96;108693;1258;71379;-78
2023/02/22 04:15:17;;;;;;;23.30;9.80;;;;;;;4.27;100.00;100780.75;108693;1259;62897;-78
2023/02/22 04:17:44;;;;;;;29.30;11.30;;;;;;;4.25;100.00;100779.12;108757;1258;60059;-78
2023/02/22 04:20:12;;;;;;;25.90;10.10;;;;;;;4.23;100.00;100775.44;108767;1259;73650;-78
2023/02/22 04:22:40;;;;;;;25.40;10.90;;;;;;;4.21;100.00;100774.77;108774;1258;71672;-78
2023/02/22 04:25:07;;;;;;;25.20;10.90;;;;;;;4.19;100.00;100771.97;108800;1257;71441;-78
2023/02/22 04:27:34;;;;;;;26.10;10.70;;;;;;;4.18;100.00;100771.92;108815;1259;59638;-78
2023/02/22 04:30:01;;;;;;;27.90;11.30;;;;;;;4.16;100.00;100774.66;108757;1259;59633;-78
2023/02/22 04:32:29;;;;;;;25.90;11.70;;;;;;;4.14;100.00;100771.86;108696;1259;75094;-78
2023/02/22 04:34:56;;;;;;;31.40;11.30;;;;;;;4.14;100.00;100773.40;108843;1258;70265;-78
2023/02/22 04:37:23;;;;;;;28.20;11.00;;;;;;;4.15;100.00;100770.90;108785;1259;72580;-78
2023/02/22 04:39:50;;;;;;;26.90;11.60;;;;;;;4.15;100.00;100767.56;108762;1258;59775;-78
2023/02/22 04:42:17;;;;;;;28.00;12.60;;;;;;;4.14;100.00;100768.57;108681;1258;59735;-78
2023/02/22 04:44:45;;;;;;;26.50;11.30;;;;;;;4.12;100.00;100765.72;108798;1258;73109;-78
2023/02/22 04:47:12;;;;;;;27.70;11.10;;;;;;;4.10;100.00;100765.02;108735;1257;71058;-78
2023/02/22 04:49:38;;;;;;;27.00;10.90;;;;;;;4.07;100.00;100762.98;108656;1257;71116;-78
2023/02/22 04:52:05;;;;;;;33.20;11.70;;;;;;;4.05;100.00;100767.02;108839;1258;59856;-78
2023/02/22 04:54:33;;;;;;;24.90;11.00;;;;;;;4.03;100.00;100764.90;108858;1257;60204;-78
2023/02/22 04:56:59;;;;;;;31.20;12.20;;;;;;;4.01;100.00;100767.88;108775;1257;74342;-78
2023/02/22 04:59:27;;;;;;;33.90;13.10;;;;;;;4.00;100.00;100765.30;108687;1262;70898;-78
2023/02/22 05:01:54;;;;;;;34.90;12.90;;;;;;;4.02;100.00;100764.63;108643;1259;71435;-78
2023/02/22 05:04:21;;;;;;;31.30;13.30;;;;;;;4.03;100.00;100762.77;108737;1259;59699;-78
2023/02/22 05:06:48;;;;;;;33.20;12.70;;;;;;;4.08;100.00;100763.44;108753;1259;60432;-78
2023/02/22 05:09:15;;;;;;;35.30;13.00;;;;;;;4.13;100.00;100768.44;108646;1259;73665;-78
2023/02/22 05:11:42;;;;;;;32.70;13.30;;;;;;;4.17;100.00;100765.80;108644;1259;70020;-78
2023/02/22 05:14:09;;;;;;;36.60;14.40;;;;;;;4.24;100.00;100765.93;108764;1257;72464;-78
2023/02/22 05:16:36;;;;;;;39.80;14.80;;;;;;;4.33;100.00;100765.83;108761;1258;61342;-78
2023/02/22 05:19:03;;;;;;;37.60;14.20;;;;;;;4.42;100.00;100763.27;108755;1259;59133;-78
2023/02/22 05:21:30;;;;;;;40.60;15.80;;;;;;;4.52;100.00;100758.65;108892;1257;73234;-78
2023/02/22 05:23:57;;;;;;;40.40;14.20;;;;;;;4.59;100.00;100758.36;108795;1258;70278;-78
2023/02/22 05:26:24;;;;;;;39.40;14.90;;;;;;;4.66;100.00;100757.38;108725;1258;71686;-78
2023/02/22 05:28:51;;;;;;;36.80;14.70;;;;;;;4.72;100.00;100761.20;108761;1257;59639;-78
2023/02/22 05:31:19;;;;;;;36.60;14.20;;;;;;;4.78;100.00;100761.23;108752;1258;60153;-78
2023/02/22 05:33:47;;;;;;;38.00;14.40;;;;;;;4.83;100.00;100759.16;108784;1258;75409;-78
2023/02/22 05:36:15;;;;;;;35.70;14.10;;;;;;;4.89;100.00;100753.19;108797;1261;71204;-78
2023/02/22 05:38:43;;;;;;;34.50;14.60;;;;;;;4.97;100.00;100749.09;108691;1257;72017;-79
2023/02/22 05:41:12;;;;;;;35.60;14.70;;;;;;;5.00;100.00;100746.67;108870;1257;59926;-78
2023/02/22 05:43:39;;;;;;;39.70;15.30;;;;;;;5.03;100.00;100748.50;108741;1260;59233;-78
2023/02/22 05:46:07;;;;;;;39.20;15.40;;;;;;;5.04;100.00;100745.20;108777;1257;73413;-79
2023/02/22 05:48:34;;;;;;;40.10;16.20;;;;;;;5.05;100.00;100740.80;108695;1260;69672;-78
2023/02/22 05:51:01;;;;;;;41.10;15.90;;;;;;;5.05;100.00;100744.08;108755;1259;71164;-78
2023/02/22 05:53:28;;;;;;;41.10;15.80;;;;;;;5.05;100.00;100739.60;108733;1262;59640;-78
2023/02/22 05:55:55;;;;;;;39.40;15.30;;;;;;;5.05;100.00;100741.86;108835;1261;59326;-78
2023/02/22 05:58:22;;;;;;;41.60;16.10;;;;;;;5.04;100.00;100740.17;108754;1259;73242;-78
2023/02/22 06:00:49;;;;;;;39.70;14.70;;;;;;;5.04;100.00;100738.73;108796;1259;70531;-78
2023/02/22 06:03:16;;;;;;;39.00;16.00;;;;;;;5.05;100.00;100736.39;108748;1258;72383;-78
2023/02/22 06:05:43;;;;;;;39.70;15.40;;;;;;;5.06;100.00;100733.54;108749;1258;59689;-79
2023/02/22 06:08:11;;;;;;;40.50;15.90;;;;;;;5.06;100.00;100727.76;108781;1259;60399;-78
2023/02/22 06:10:38;;;;;;;37.60;15.80;;;;;;;5.05;100.00;100730.95;108756;1259;73226;-78
2023/02/22 06:13:05;;;;;;;35.40;14.70;;;;;;;5.06;100.00;100733.48;108819;1261;70897;-78
2023/02/22 06:15:32;;;;;;;38.80;15.90;;;;;;;5.09;100.00;100735.27;108753;1259;71125;-78
2023/02/22 06:18:00;;;;;;;39.30;15.40;;;;;;;5.13;100.00;100732.53;108762;1259;60917;-78
2023/02/22 06:20:28;;;;;;;39.70;15.00;;;;;;;5.17;100.00;100733.22;108677;1258;60938;-78
2023/02/22 06:22:57;;;;;;;38.30;15.40;;;;;;;5.20;100.00;100734.19;108695;1259;73253;-78
2023/02/22 06:25:26;;;;;;;38.80;15.80;;;;;;;5.25;100.00;100731.20;108685;1262;69930;-78
2023/02/22 06:27:53;;;;;;;37.30;14.90;;;;;;;5.33;100.00;100730.73;108759;1258;71728;-78
2023/02/22 06:30:23;;;;;;;35.70;14.20;;;;;;;5.38;100.00;100730.25;108826;1258;59612;-78
2023/02/22 06:32:50;;;;;;;34.60;14.80;;;;;;;5.43;100.00;100729.96;108791;1258;59642;-78
2023/02/22 06:35:17;;;;;;;38.00;17.30;;;;;;;5.47;100.00;100726.42;108743;1260;73189;-78
2023/02/22 06:37:44;;;;;;;35.00;16.00;;;;;;;5.51;100.00;100725.38;108749;1257;69953;-78
2023/02/22 06:40:12;;;;;;;30.50;14.10;;;;;;;5.54;100.00;100721.22;108724;1257;72786;-78
2023/02/22 06:42:39;;;;;;;30.50;13.50;;;;;;;5.56;100.00;100719.34;108682;1258;60895;-78
2023/02/22 06:45:07;;;;;;;31.90;13.40;;;;;;;5.55;100.00;100724.27;108759;1258;60230;-78
2023/02/22 06:47:38;;;;;;;29.40;12.70;;;;;;;5.55;100.00;100725.92;108801;1260;74818;-78
2023/02/22 06:50:06;;;;;;;27.20;12.00;;;;;;;5.55;100.00;100725.88;108730;1259;69711;-78
2023/02/22 06:52:33;;;;;;;27.00;11.80;;;;;;;5.57;100.00;100732.55;108838;1259;71503;-78
2023/02/22 06:55:00;;;;;;;29.90;13.00;;;;;;;5.59;100.00;100734.29;108738;1259;59820;-78
2023/02/22 06:57:27;;;;;;;28.20;12.20;;;;;;;5.65;100.00;100732.48;108827;1257;59010;-79
2023/02/22 06:59:54;;;;;;;31.20;12.40;;;;;;;5.72;100.00;100729.23;108827;1257;73714;-79
2023/02/22 07:02:21;;;;;;;28.20;11.80;;;;;;;5.80;100.00;100732.02;108667;1262;69877;-78
2023/02/22 07:04:48;;;;;;;27.00;11.30;;;;;;;5.86;100.00;100733.20;108814;1258;70065;-78
2023/02/22 07:07:15;;;;;;;25.70;11.50;;;;;;;5.90;100.00;100735.95;108806;1259;59779;-78
2023/02/22 07:09:45;;;;;;;26.70;12.50;;;;;;;5.98;100.00;100733.35;108765;1257;59342;-78
2023/02/22 07:12:12;;;;;;;27.00;11.80;;;;;;;6.09;100.00;100738.25;108809;1258;75059;-78
2023/02/22 07:14:39;;;;;;;26.20;12.10;;;;;;;6.21;100.00;100735.57;108793;1259;71073;-78
2023/02/22 07:17:06;;;;;;;24.50;11.30;;;;;;;6.32;100.00;100733.30;108820;1258;72511;-78
2023/02/22 07:19:33;;;;;;;26.10;11.20;;;;;;;6.43;100.00;100730.88;108781;1262;60878;-78
2023/02/22 07:22:00;;;;;;;24.20;10.50;;;;;;;6.50;100.00;100732.60;108756;1258;59323;-78
2023/02/22 07:24:27;;;;;;;23.40;10.20;;;;;;;6.54;100.00;100735.23;108662;1258;74781;-78
2023/02/22 07:27:00;;;;;;;21.50;10.10;;;;;;;6.59;100.00;100737.27;108786;1259;71378;-78
2023/02/22 07:29:27;;;;;;;20.20;9.90;;;;;;;6.66;100.00;100736.58;108651;1258;71135;-78
2023/02/22 07:31:54;;;;;;;23.30;10.60;;;;;;;6.72;100.00;100736.88;108820;1259;61445;-78
2023/02/22 07:34:21;;;;;;;23.60;10.40;;;;;;;6.79;100.00;100733.69;108704;1257;59484;-78
2023/02/22 07:36:48;;;;;;;20.50;10.10;;;;;;;6.87;100.00;100735.89;108724;1259;73848;-78
2023/02/22 07:39:16;;;;;;;20.80;9.80;;;;;;;6.96;100.00;100732.93;108788;1259;70981;-78
2023/02/22 07:41:43;;;;;;;20.80;10.10;;;;;;;7.04;100.00;100730.59;108771;1257;71688;-78
2023/02/22 07:44:09;;;;;;;20.00;10.00;;;;;;;7.12;100.00;100733.62;108781;1258;59457;-78
2023/02/22 07:46:36;;;;;;;20.10;9.90;;;;;;;7.23;100.00;100733.27;108260;1260;689373;-78
2023/02/22 07:49:03;;;;;;;19.30;9.50;;;;;;;7.32;100.00;100732.02;108798;1259;74104;-78
2023/02/22 07:51:31;;;;;;;19.10;9.90;;;;;;;7.40;100.00;100730.08;108747;1259;73127;-78
2023/02/22 07:53:59;;;;;;;21.30;10.00;;;;;;;7.47;100.00;100724.39;108792;1258;71197;-78
2023/02/22 07:56:25;;;;;;;20.10;10.10;;;;;;;7.53;100.00;100721.46;108703;1257;59729;-78
2023/02/22 07:58:53;;;;;;;19.30;10.00;;;;;;;7.61;100.00;100728.55;108805;1259;59090;-78
2023/02/22 08:01:20;;;;;;;21.70;9.70;;;;;;;7.69;100.00;100729.49;108770;1260;75785;-77
2023/02/22 08:03:47;;;;;;;24.30;9.90;;;;;;;7.79;100.00;100730.09;108752;1257;69725;-78
2023/02/22 08:06:14;;;;;;;18.60;9.60;;;;;;;7.91;100.00;100724.30;108723;1259;72746;-78
2023/02/22 08:08:41;;;;;;;18.90;10.50;;;;;;;8.01;100.00;100725.95;108807;1258;61162;-78
2023/02/22 08:11:08;;;;;;;18.60;9.80;;;;;;;8.12;100.00;100721.05;108773;1259;60526;-78
2023/02/22 08:13:37;;;;;;;18.30;9.70;;;;;;;8.24;100.00;100719.23;108779;1258;74879;-78
2023/02/22 08:16:04;;;;;;;17.60;9.50;;;;;;;8.37;100.00;100719.04;108891;1260;69093;-78
2023/02/22 08:18:31;;;;;;;17.60;9.40;;;;;;;8.50;100.00;100719.66;108778;1259;72442;-77
2023/02/22 08:20:58;;;;;;;17.70;9.00;;;;;;;8.65;100.00;100718.81;108728;1258;59646;-78
2023/02/22 08:23:25;;;;;;;17.20;9.10;;;;;;;8.76;100.00;100716.59;108734;1259;60059;-77
2023/02/22 08:25:53;;;;;;;16.70;9.90;;;;;;;8.87;100.00;100712.57;108869;1262;74651;-77
2023/02/22 08:28:22;;;;;;;18.10;10.30;;;;;;;8.99;99.97;100716.63;108773;1259;71082;-78
2023/02/22 08:30:50;;;;;;;17.90;9.60;;;;;;;9.10;99.75;100713.13;108788;1259;72594;-77
2023/02/22 08:33:18;;;;;;;13.20;7.90;;;;;;;9.19;98.92;100710.44;108759;1262;59888;-77
2023/02/22 08:35:50;;;;;;;15.00;8.40;;;;;;;9.25;98.02;100709.41;108778;1256;60483;-77
2023/02/22 08:38:27;;;;;;;16.60;8.50;;;;;;;9.33;97.69;100712.09;108809;1258;74557;-77
2023/02/22 08:40:54;;;;;;;16.40;9.00;;;;;;;9.42;97.38;100708.48;108927;1260;71269;-77
2023/02/22 08:43:22;;;;;;;15.50;9.50;;;;;;;9.52;97.35;100709.00;108735;1258;71809;-77
2023/02/22 08:45:50;;;;;;;15.40;9.20;;;;;;;9.63;97.15;100702.98;108808;1257;60665;-77
2023/02/22 08:48:17;;;;;;;14.80;8.30;;;;;;;9.76;96.93;100700.80;108765;1258;58970;-77
2023/02/22 08:50:45;;;;;;;15.50;8.30;;;;;;;9.87;96.25;100702.84;108764;1259;74613;-75
2023/02/22 08:53:14;;;;;;;14.90;7.70;;;;;;;9.92;95.45;100702.98;108743;1257;71329;-75
2023/02/22 08:55:41;;;;;;;15.20;8.40;;;;;;;9.94;94.86;100701.73;108767;1259;70276;-75
2023/02/22 08:58:09;;;;;;;14.70;8.30;;;;;;;10.00;95.01;100701.80;108793;1260;62086;-76
2023/02/22 09:00:37;;;;;;;13.20;8.60;;;;;;;10.12;95.67;100699.88;108715;1259;59214;-75
2023/02/22 09:03:11;;;;;;;15.20;8.20;;;;;;;10.30;95.74;100698.29;108797;1259;75872;-76
2023/02/22 09:05:39;;;;;;;12.90;8.30;;;;;;;10.48;94.88;100699.64;108733;1259;70036;-75
2023/02/22 09:08:06;;;;;;;14.30;8.40;;;;;;;10.63;94.37;100695.77;108804;1258;71135;-77
2023/02/22 09:10:33;;;;;;;15.20;9.40;;;;;;;10.75;93.44;100695.59;108810;1256;61877;-75
2023/02/22 09:13:01;;;;;;;14.50;9.00;;;;;;;10.87;92.58;100689.97;108706;1260;59232;-75
2023/02/22 09:15:28;;;;;;;14.80;8.90;;;;;;;10.97;91.91;100689.16;108745;1260;74716;-74
2023/02/22 09:17:56;;;;;;;14.70;9.40;;;;;;;11.02;90.82;100687.86;108744;1257;71189;-75
2023/02/22 09:20:23;;;;;;;14.00;9.10;;;;;;;11.08;90.51;100689.35;108856;1257;71262;-74
2023/02/22 09:22:51;;;;;;;14.30;9.30;;;;;;;11.10;89.96;100688.94;108596;1258;60467;-75
2023/02/22 09:25:21;;;;;;;13.90;9.00;;;;;;;11.11;89.09;100683.64;108826;1259;60750;-75
2023/02/22 09:27:50;;;;;;;17.60;9.70;;;;;;;11.09;88.75;100678.16;108747;1259;73420;-76
2023/02/22 09:30:32;;;;;;;16.30;9.60;;;;;;;11.11;89.40;100675.55;108766;1257;69219;-75
2023/02/22 09:33:02;;;;;;;17.60;9.90;;;;;;;11.11;89.00;100675.06;108834;1259;71456;-76
2023/02/22 09:35:29;;;;;;;16.90;10.10;;;;;;;11.10;88.57;100673.61;108792;1259;60825;-76
2023/02/22 09:37:57;;;;;;;17.50;10.10;;;;;;;11.11;88.94;100673.27;108756;1260;59724;-76
2023/02/22 09:40:28;;;;;;;17.20;10.00;;;;;;;11.16;88.81;100674.46;108747;1259;75128;-75
2023/02/22 09:43:07;;;;;;;16.00;9.70;;;;;;;11.25;88.92;100673.05;108798;1259;71522;-76
2023/02/22 09:45:43;;;;;;;16.40;10.10;;;;;;;11.39;89.14;100674.37;108802;1257;72059;-76
2023/02/22 09:48:14;;;;;;;16.70;10.00;;;;;;;11.50;88.25;100671.54;108794;1257;62918;-76
2023/02/22 09:50:51;;;;;;;17.10;10.80;;;;;;;11.58;87.96;100669.00;108761;1259;59136;-75
2023/02/22 09:53:29;;;;;;;17.10;10.90;;;;;;;11.71;88.45;100669.49;108794;1259;73982;-75
2023/02/22 09:56:03;;;;;;;17.70;11.00;;;;;;;11.83;87.55;100666.17;108797;1259;70902;-75
2023/02/22 09:58:35;;;;;;;17.10;10.60;;;;;;;11.95;87.27;100670.98;108780;1258;72656;-75
2023/02/22 10:01:30;;;;;;;16.80;10.70;;;;;;;12.04;86.19;100666.66;108822;1259;60807;-75
2023/02/22 10:04:17;;;;;;;15.20;10.40;;;;;;;12.11;85.15;100667.14;108807;1257;60304;-75
2023/02/22 10:07:13;;;;;;;18.20;11.00;;;;;;;12.20;85.03;100671.83;108832;1260;74687;-75
2023/02/22 10:09:42;;;;;;;16.80;10.50;;;;;;;12.32;84.39;100673.77;108831;1257;69933;-75
2023/02/22 10:12:14;;;;;;;16.20;10.50;;;;;;;12.41;83.83;100667.41;108723;1259;71188;-75
2023/02/22 10:15:11;;;;;;;15.60;10.50;;;;;;;12.47;83.31;100666.49;108826;1257;60485;-75
2023/02/22 10:18:16;;;;;;;15.80;10.40;;;;;;;12.54;83.07;100664.89;108798;1262;58963;-75
2023/02/22 10:21:01;;;;;;;15.70;10.20;;;;;;;12.61;82.41;100665.62;108822;1257;73219;-75
2023/02/22 10:23:54;;;;;;;15.10;10.30;;;;;;;12.61;81.34;100663.82;108868;1257;69858;-75
2023/02/22 10:26:25;;;;;;;15.80;10.70;;;;;;;12.71;82.24;100653.89;108772;1262;72051;-75
2023/02/22 10:29:16;;;;;;;14.30;9.30;;;;;;;12.82;81.45;100652.76;108741;1259;61048;-76
2023/02/22 10:31:51;;;;;;;14.70;9.90;;;;;;;12.83;80.24;100649.74;108817;1257;60072;-75
2023/02/22 10:34:28;;;;;;;15.90;10.10;;;;;;;12.90;80.50;100646.98;108804;1257;74072;-75
2023/02/22 10:37:16;;;;;;;14.50;9.70;;;;;;;12.94;79.90;100642.06;108762;1259;69961;-75
2023/02/22 10:39:45;;;;;;;16.00;9.50;;;;;;;13.02;79.51;100637.79;108746;1262;72683;-75
2023/02/22 10:42:12;;;;;;;14.40;9.00;;;;;;;13.13;79.22;100632.51;108792;1260;61700;-75
2023/02/22 10:44:39;;;;;;;15.70;10.10;;;;;;;13.25;79.07;100629.04;108732;1259;59068;-75
2023/02/22 10:47:09;;;;;;;15.20;10.10;;;;;;;13.43;78.96;100625.41;108750;1262;75475;-75
2023/02/22 10:49:43;;;;;;;13.90;9.50;;;;;;;13.60;77.60;100625.23;108811;1261;71070;-75
2023/02/22 10:52:18;;;;;;;14.10;9.80;;;;;;;13.76;76.90;100623.75;108841;1262;72558;-75
2023/02/22 10:54:49;;;;;;;14.10;9.80;;;;;;;13.86;75.83;100620.39;108599;1259;61238;-76
2023/02/22 10:57:21;;;;;;;14.30;9.20;;;;;;;13.99;75.19;100616.30;108776;1259;59969;-75
2023/02/22 10:59:50;;;;;;;16.20;10.20;;;;;;;14.11;74.32;100614.41;108770;1262;73225;-75
2023/02/22 11:02:20;;;;;;;15.20;10.20;;;;;;;14.21;73.79;100613.63;108781;1257;70670;-76
2023/02/22 11:04:52;;;;;;;15.90;10.50;;;;;;;14.36;74.26;100604.40;108691;1259;73775;-75
2023/02/22 11:07:28;;;;;;;13.80;9.40;;;;;;;14.47;72.94;100606.50;108762;1258;61383;-75
2023/02/22 11:09:58;;;;;;;14.50;9.70;;;;;;;14.49;71.82;100602.45;108730;1260;60077;-75
2023/02/22 11:12:28;;;;;;;12.80;9.70;;;;;;;14.51;71.22;100600.52;108682;1263;74743;-75
2023/02/22 11:14:55;;;;;;;14.80;9.80;;;;;;;14.63;71.50;100600.56;108762;1258;69707;-76
2023/02/22 11:17:33;;;;;;;14.10;9.80;;;;;;;14.81;71.91;100593.39;108764;1259;72623;-75
2023/02/22 11:20:00;;;;;;;15.20;9.50;;;;;;;14.95;70.48;100590.71;108690;1261;61767;-75
2023/02/22 11:22:40;;;;;;;14.60;9.60;;;;;;;14.99;69.65;100588.13;108764;1262;59073;-75